createdAt,value
2019-02-04T00:00:46.045Z,3.00
2019-02-04T00:03:21.608Z,2.87
2019-02-04T00:05:51.043Z,2.78
2019-02-04T00:08:20.476Z,2.79
2019-02-04T00:10:49.910Z,2.70
2019-02-04T00:13:19.342Z,2.62
2019-02-04T00:15:48.788Z,2.56
2019-02-04T00:18:18.219Z,2.57
2019-02-04T00:20:47.653Z,2.68
2019-02-04T00:23:17.084Z,2.70
2019-02-04T00:25:46.522Z,2.60
2019-02-04T00:28:15.949Z,2.69
2019-02-04T00:30:45.390Z,2.75
2019-02-04T00:33:14.818Z,2.75
2019-02-04T00:35:44.262Z,2.62
2019-02-04T00:38:13.966Z,2.54
2019-02-04T00:40:43.410Z,2.46
2019-02-04T00:43:12.928Z,2.32
2019-02-04T00:45:42.371Z,2.37
2019-02-04T00:48:11.800Z,2.40
2019-02-04T00:50:41.321Z,2.38
2019-02-04T00:53:10.933Z,2.32
2019-02-04T00:55:40.371Z,2.37
2019-02-04T00:58:09.796Z,2.29
2019-02-04T01:00:39.309Z,2.35
2019-02-04T01:03:08.885Z,2.31
2019-02-04T01:05:38.391Z,2.25
2019-02-04T01:08:07.817Z,2.20
2019-02-04T01:10:37.529Z,2.22
2019-02-04T01:13:06.960Z,2.17
2019-02-04T01:15:36.399Z,2.11
2019-02-04T01:18:05.981Z,2.20
2019-02-04T01:20:35.872Z,2.21
2019-02-04T01:23:05.373Z,2.15
2019-02-04T01:25:34.816Z,2.20
2019-02-04T01:28:04.314Z,2.22
2019-02-04T01:30:33.761Z,2.13
2019-02-04T01:33:03.192Z,2.17
2019-02-04T01:35:32.648Z,2.04
2019-02-04T01:38:02.071Z,2.09
2019-02-04T01:40:31.500Z,2.14
2019-02-04T01:43:00.942Z,2.08
2019-02-04T01:45:30.373Z,2.09
2019-02-04T01:47:59.816Z,2.05
2019-02-04T01:50:29.251Z,1.95
2019-02-04T01:52:58.682Z,1.89
2019-02-04T01:55:28.115Z,2.02
2019-02-04T01:57:57.560Z,1.99
2019-02-04T02:00:33.620Z,1.99
2019-02-04T02:03:03.592Z,1.95
2019-02-04T02:05:33.026Z,1.92
2019-02-04T02:08:02.470Z,1.92
2019-02-04T02:10:31.900Z,1.93
2019-02-04T02:13:01.356Z,1.85
2019-02-04T02:15:31.244Z,1.87
2019-02-04T02:18:00.683Z,1.85
2019-02-04T02:20:30.552Z,1.81
2019-02-04T02:22:59.987Z,1.78
2019-02-04T02:25:29.419Z,1.88
2019-02-04T02:27:58.872Z,1.93
2019-02-04T02:30:31.325Z,1.83
2019-02-04T02:33:00.749Z,1.83
2019-02-04T02:35:30.185Z,1.85
2019-02-04T02:37:59.689Z,1.74
2019-02-04T02:40:32.229Z,1.77
2019-02-04T02:43:02.119Z,1.79
2019-02-04T02:45:31.561Z,1.76
2019-02-04T02:48:00.996Z,1.73
2019-02-04T02:50:30.565Z,1.73
2019-02-04T02:53:00.011Z,1.72
2019-02-04T02:55:29.443Z,1.81
2019-02-04T02:57:59.065Z,1.81
2019-02-04T03:00:29.534Z,1.78
2019-02-04T03:02:58.976Z,1.73
2019-02-04T03:05:28.480Z,1.72
2019-02-04T03:07:57.912Z,1.74
2019-02-04T03:10:30.557Z,1.68
2019-02-04T03:13:00.135Z,1.59
2019-02-04T03:15:29.648Z,1.57
2019-02-04T03:17:59.078Z,1.64
2019-02-04T03:20:28.506Z,1.69
2019-02-04T03:22:57.947Z,1.68
2019-02-04T03:25:27.556Z,1.61
2019-02-04T03:27:56.993Z,1.65
2019-02-04T03:30:32.791Z,1.59
2019-02-04T03:33:02.305Z,1.56
2019-02-04T03:35:31.780Z,1.54
2019-02-04T03:38:01.599Z,1.58
2019-02-04T03:40:32.538Z,1.58
2019-02-04T03:43:02.251Z,1.55
2019-02-04T03:48:11.800Z,1.56
2019-02-04T03:50:41.228Z,1.46
2019-02-04T03:53:10.668Z,1.48
2019-02-04T03:55:40.102Z,1.50
2019-02-04T03:58:09.547Z,1.38
2019-02-04T04:00:39.049Z,1.36
2019-02-04T04:03:08.932Z,1.44
2019-02-04T04:05:41.014Z,1.31
2019-02-04T04:08:10.453Z,1.35
2019-02-04T04:10:39.882Z,1.33
2019-02-04T04:13:09.329Z,1.26
2019-02-04T04:15:39.755Z,1.32
2019-02-04T04:18:16.116Z,1.23
2019-02-04T04:20:40.351Z,1.12
2019-02-04T04:23:09.811Z,1.03
2019-02-04T04:25:39.222Z,0.99
2019-02-04T04:28:08.666Z,0.94
2019-02-04T04:30:38.480Z,0.85
2019-02-04T04:33:07.921Z,0.70
2019-02-04T04:35:38.997Z,0.65
2019-02-04T04:38:08.669Z,0.66
2019-02-04T04:40:38.099Z,0.64
2019-02-04T04:43:07.532Z,0.57
2019-02-04T04:45:36.968Z,0.38
2019-02-04T04:48:06.403Z,0.45
2019-02-04T04:50:35.835Z,0.50
2019-02-04T04:53:05.350Z,0.43
2019-02-04T04:55:34.779Z,0.39
2019-02-04T04:58:04.225Z,0.41
2019-02-04T05:00:33.861Z,0.52
2019-02-04T05:03:03.301Z,0.30
2019-02-04T05:05:32.744Z,0.31
2019-02-04T05:08:02.194Z,0.24
2019-02-04T05:10:31.627Z,0.06
2019-02-04T05:13:01.443Z,0.05
2019-02-04T05:15:30.876Z,0.08
2019-02-04T05:18:00.319Z,0.16
2019-02-04T05:20:29.742Z,0.19
2019-02-04T05:22:59.229Z,0.34
2019-02-04T05:25:28.608Z,0.28
2019-02-04T05:27:58.048Z,0.26
2019-02-04T05:30:27.483Z,0.40
2019-02-04T05:32:57.000Z,0.39
2019-02-04T05:35:26.427Z,0.48
2019-02-04T05:37:55.866Z,0.52
2019-02-04T05:40:25.297Z,0.44
2019-02-04T05:42:54.747Z,0.44
2019-02-04T05:45:24.181Z,0.39
2019-02-04T05:47:53.615Z,0.27
2019-02-04T05:50:23.058Z,0.18
2019-02-04T05:52:52.488Z,0.13
2019-02-04T05:55:23.144Z,0.05
2019-02-04T05:57:52.588Z,0.01
2019-02-04T06:00:28.371Z,0.00
2019-02-04T06:02:57.815Z,-0.08
2019-02-04T06:05:27.247Z,0.07
2019-02-04T06:07:56.691Z,0.06
2019-02-04T06:10:26.134Z,-0.06
2019-02-04T06:12:55.569Z,-0.11
2019-02-04T06:15:25.026Z,-0.10
2019-02-04T06:17:54.466Z,-0.06
2019-02-04T06:20:26.215Z,-0.05
2019-02-04T06:22:55.997Z,0.03
2019-02-04T06:25:25.445Z,0.11
2019-02-04T06:27:54.876Z,0.04
2019-02-04T06:30:24.316Z,0.11
2019-02-04T06:32:53.747Z,0.12
2019-02-04T06:35:23.199Z,0.07
2019-02-04T06:37:52.621Z,0.05
2019-02-04T06:40:22.129Z,0.18
2019-02-04T06:42:51.580Z,0.25
2019-02-04T06:45:21.191Z,0.23
2019-02-04T06:47:50.685Z,0.27
2019-02-04T06:50:21.263Z,0.38
2019-02-04T06:52:50.697Z,0.41
2019-02-04T06:55:27.377Z,0.31
2019-02-04T06:57:56.818Z,0.18
2019-02-04T07:00:26.278Z,0.12
2019-02-04T07:02:55.934Z,0.03
2019-02-04T07:05:25.386Z,-0.14
2019-02-04T07:07:54.824Z,-0.13
2019-02-04T07:10:27.274Z,-0.13
2019-02-04T07:12:56.777Z,-0.16
2019-02-04T07:15:26.224Z,-0.16
2019-02-04T07:18:01.517Z,-0.22
2019-02-04T07:20:27.889Z,-0.23
2019-02-04T07:22:57.323Z,-0.34
2019-02-04T07:25:26.935Z,-0.30
2019-02-04T07:27:56.379Z,-0.25
2019-02-04T07:30:29.381Z,-0.26
2019-02-04T07:32:58.817Z,-0.28
2019-02-04T07:35:28.264Z,-0.30
2019-02-04T07:37:57.704Z,-0.32
2019-02-04T07:40:30.568Z,-0.24
2019-02-04T07:43:00.003Z,-0.27
2019-02-04T07:45:29.509Z,-0.22
2019-02-04T07:47:58.953Z,-0.25
2019-02-04T07:50:28.381Z,-0.23
2019-02-04T07:52:57.977Z,-0.20
2019-02-04T07:55:27.472Z,-0.21
2019-02-04T07:57:57.823Z,-0.17
2019-02-04T08:00:33.111Z,-0.13
2019-02-04T08:03:02.928Z,-0.08
2019-02-04T08:05:32.380Z,-0.02
2019-02-04T08:08:01.821Z,0.03
2019-02-04T08:10:31.261Z,0.10
2019-02-04T08:13:02.095Z,0.19
2019-02-04T08:15:39.172Z,0.24
2019-02-04T08:18:08.787Z,0.27
2019-02-04T08:20:38.227Z,0.33
2019-02-04T08:23:07.721Z,0.35
2019-02-04T08:25:39.161Z,0.38
2019-02-04T08:28:08.629Z,0.45
2019-02-04T08:30:38.823Z,0.50
2019-02-04T08:33:08.265Z,0.55
2019-02-04T08:35:39.342Z,0.60
2019-02-04T08:38:08.802Z,0.63
2019-02-04T08:40:38.504Z,0.68
2019-02-04T08:43:08.024Z,0.74
2019-02-04T08:45:39.085Z,0.80
2019-02-04T08:48:08.533Z,0.86
2019-02-04T08:50:37.968Z,0.90
2019-02-04T08:53:07.478Z,0.98
2019-02-04T08:55:38.901Z,1.08
2019-02-04T08:58:08.683Z,1.19
2019-02-04T09:00:38.116Z,1.19
2019-02-04T09:03:07.563Z,1.32
2019-02-04T09:05:36.998Z,1.39
2019-02-04T09:08:06.522Z,1.45
2019-02-04T09:10:36.335Z,1.45
2019-02-04T09:13:05.848Z,1.46
2019-02-04T09:15:35.278Z,1.52
2019-02-04T09:18:05.360Z,1.58
2019-02-04T09:20:34.888Z,1.65
2019-02-04T09:23:06.467Z,1.63
2019-02-04T09:25:35.570Z,1.77
2019-02-04T09:28:05.016Z,1.86
2019-02-04T09:30:34.518Z,2.00
2019-02-04T09:33:03.972Z,1.99
2019-02-04T09:35:33.405Z,1.94
2019-02-04T09:38:02.987Z,1.98
2019-02-04T09:40:37.138Z,2.17
2019-02-04T09:43:07.092Z,2.21
2019-02-04T09:45:36.663Z,2.37
2019-02-04T09:48:10.737Z,2.40
2019-02-04T09:50:43.981Z,2.46
2019-02-04T09:53:13.395Z,2.47
2019-02-04T09:55:42.910Z,2.49
2019-02-04T09:58:12.349Z,2.56
2019-02-04T10:00:41.799Z,2.70
2019-02-04T10:03:11.239Z,2.68
2019-02-04T10:05:40.750Z,2.69
2019-02-04T10:08:10.185Z,2.83
2019-02-04T10:10:39.628Z,2.85
2019-02-04T10:13:09.350Z,2.81
2019-02-04T10:15:42.433Z,2.84
2019-02-04T10:18:13.992Z,2.89
2019-02-04T10:20:43.446Z,2.96
2019-02-04T10:23:12.944Z,3.07
2019-02-04T10:25:44.278Z,3.14
2019-02-04T10:28:15.770Z,3.16
2019-02-04T10:30:45.660Z,3.20
2019-02-04T10:33:15.540Z,3.34
2019-02-04T10:35:45.013Z,3.55
2019-02-04T10:38:16.334Z,3.48
2019-02-04T10:40:45.661Z,3.48
2019-02-04T10:43:15.120Z,3.68
2019-02-04T10:45:44.581Z,3.68
2019-02-04T10:48:14.082Z,3.85
2019-02-04T10:50:46.702Z,3.83
2019-02-04T10:53:14.680Z,3.99
2019-02-04T10:55:44.137Z,3.99
2019-02-04T10:58:14.632Z,3.97
2019-02-04T11:00:44.546Z,4.23
2019-02-04T11:03:14.250Z,4.37
2019-02-04T11:05:44.596Z,4.17
2019-02-04T11:08:14.983Z,4.09
2019-02-04T11:10:44.402Z,4.15
2019-02-04T11:13:16.771Z,4.16
2019-02-04T11:15:46.601Z,4.17
2019-02-04T11:18:16.420Z,4.18
2019-02-04T11:20:57.094Z,4.44
2019-02-04T11:23:17.239Z,4.39
2019-02-04T11:25:46.844Z,4.80
2019-02-04T11:28:16.674Z,4.62
2019-02-04T11:30:53.482Z,4.76
2019-02-04T11:33:23.189Z,4.65
2019-02-04T11:35:52.953Z,4.80
2019-02-04T11:38:22.408Z,4.85
2019-02-04T11:40:52.249Z,5.09
2019-02-04T11:43:21.657Z,5.09
2019-02-04T11:45:51.432Z,4.97
2019-02-04T11:48:20.910Z,4.85
2019-02-04T11:50:50.490Z,4.84
2019-02-04T11:53:32.033Z,4.81
2019-02-04T11:55:51.256Z,4.99
2019-02-04T11:58:20.689Z,5.02
2019-02-04T12:00:50.206Z,5.09
2019-02-04T12:03:19.645Z,5.08
2019-02-04T12:05:49.079Z,5.11
2019-02-04T12:08:19.148Z,5.12
2019-02-04T12:10:56.157Z,5.07
2019-02-04T12:13:25.660Z,5.24
2019-02-04T12:15:57.108Z,5.29
2019-02-04T12:18:26.537Z,5.40
2019-02-04T12:20:55.979Z,5.44
2019-02-04T12:23:25.420Z,5.31
2019-02-04T12:25:54.865Z,5.37
2019-02-04T12:28:24.288Z,5.36
2019-02-04T12:30:53.734Z,5.44
2019-02-04T12:33:23.167Z,5.52
2019-02-04T12:35:52.634Z,5.57
2019-02-04T12:38:22.627Z,5.55
2019-02-04T12:40:52.060Z,5.67
2019-02-04T12:43:21.518Z,5.65
2019-02-04T12:45:50.930Z,5.62
2019-02-04T12:48:20.352Z,5.61
2019-02-04T12:50:49.862Z,5.62
2019-02-04T12:53:19.293Z,5.75
2019-02-04T12:55:48.754Z,5.70
2019-02-04T12:58:18.176Z,5.78
2019-02-04T13:00:48.192Z,5.70
2019-02-04T13:03:17.622Z,5.67
2019-02-04T13:05:51.886Z,5.83
2019-02-04T13:08:21.625Z,5.84
2019-02-04T13:10:51.067Z,5.71
2019-02-04T13:13:20.570Z,5.69
2019-02-04T13:15:50.008Z,5.69
2019-02-04T13:18:19.442Z,5.77
2019-02-04T13:20:48.896Z,5.80
2019-02-04T13:23:18.338Z,5.80
2019-02-04T13:25:47.759Z,5.71
2019-02-04T13:28:17.635Z,5.81
2019-02-04T13:30:47.074Z,5.79
2019-02-04T13:33:16.511Z,5.82
2019-02-04T13:35:46.091Z,5.85
2019-02-04T13:38:15.516Z,5.78
2019-02-04T13:40:47.309Z,5.88
2019-02-04T13:43:16.738Z,5.80
2019-02-04T13:45:46.425Z,5.80
2019-02-04T13:48:16.210Z,5.72
2019-02-04T13:50:45.654Z,5.76
2019-02-04T13:53:15.156Z,5.79
2019-02-04T13:55:44.980Z,5.73
2019-02-04T13:58:14.460Z,5.73
2019-02-04T14:00:43.935Z,5.73
2019-02-04T14:03:13.596Z,5.71
2019-02-04T14:05:43.045Z,5.74
2019-02-04T14:08:12.552Z,5.82
2019-02-04T14:10:46.080Z,5.84
2019-02-04T14:13:14.821Z,5.85
2019-02-04T14:15:44.774Z,5.88
2019-02-04T14:18:14.281Z,5.89
2019-02-04T14:20:43.715Z,5.95
2019-02-04T14:23:13.161Z,5.89
2019-02-04T14:25:42.773Z,5.90
2019-02-04T14:28:12.243Z,6.01
2019-02-04T14:30:42.205Z,5.98
2019-02-04T14:33:11.710Z,5.98
2019-02-04T14:35:41.137Z,6.00
2019-02-04T14:38:10.814Z,5.99
2019-02-04T14:40:40.326Z,5.92
2019-02-04T14:43:17.804Z,5.90
2019-02-04T14:46:12.550Z,5.88
2019-02-04T14:49:16.495Z,5.85
2019-02-04T14:51:53.402Z,5.85
2019-02-04T14:54:51.384Z,5.84
2019-02-04T14:57:52.768Z,5.78
2019-02-04T15:00:30.003Z,5.73
2019-02-04T15:03:30.968Z,5.72
2019-02-04T15:06:07.767Z,5.73
2019-02-04T15:08:50.493Z,5.74
2019-02-04T15:11:42.729Z,5.73
2019-02-04T15:14:36.528Z,5.76
2019-02-04T15:17:10.686Z,5.76
2019-02-04T15:20:05.737Z,5.77
2019-02-04T15:22:51.815Z,6.03
2019-02-04T15:25:47.004Z,5.92
2019-02-04T15:28:21.156Z,5.81
2019-02-04T15:31:14.335Z,5.83
2019-02-04T15:33:56.701Z,5.76
2019-02-04T15:36:56.291Z,5.63
2019-02-04T15:39:51.028Z,5.68
2019-02-04T15:42:43.596Z,5.58
2019-02-04T15:45:43.475Z,5.49
2019-02-04T15:48:17.409Z,5.34
2019-02-04T15:51:02.908Z,5.28
2019-02-04T15:53:32.353Z,5.14
2019-02-04T15:56:02.580Z,5.13
2019-02-04T15:58:32.199Z,5.02
2019-02-04T16:01:04.603Z,4.87
2019-02-04T16:03:32.784Z,4.78
2019-02-04T16:06:02.213Z,4.69
2019-02-04T16:08:31.648Z,4.62
2019-02-04T16:11:01.093Z,4.53
2019-02-04T16:13:30.524Z,4.50
2019-02-04T16:15:59.949Z,4.43
2019-02-04T16:18:29.384Z,4.33
2019-02-04T16:20:58.808Z,4.25
2019-02-04T16:23:28.389Z,4.20
2019-02-04T16:25:57.813Z,4.14
2019-02-04T16:28:27.245Z,4.11
2019-02-04T16:30:56.692Z,4.05
2019-02-04T16:33:26.113Z,3.96
2019-02-04T16:35:55.541Z,3.93
2019-02-04T16:38:24.965Z,3.85
2019-02-04T16:40:54.394Z,3.73
2019-02-04T16:43:23.831Z,3.72
2019-02-04T16:45:53.259Z,3.64
2019-02-04T16:48:22.696Z,3.58
2019-02-04T16:51:10.532Z,3.57
2019-02-04T16:53:23.283Z,3.52
2019-02-04T16:55:53.087Z,3.47
2019-02-04T16:58:22.521Z,3.38
2019-02-04T17:00:51.955Z,3.36
2019-02-04T17:03:21.411Z,3.28
2019-02-04T17:05:50.905Z,3.18
2019-02-04T17:08:20.336Z,3.09
2019-02-04T17:10:49.849Z,2.96
2019-02-04T17:13:19.276Z,2.92
2019-02-04T17:15:48.724Z,2.90
2019-02-04T17:18:18.154Z,2.88
2019-02-04T17:20:47.607Z,2.85
2019-02-04T17:23:22.365Z,2.79
2019-02-04T17:25:48.189Z,2.74
2019-02-04T17:28:17.618Z,2.67
2019-02-04T17:30:47.061Z,2.56
2019-02-04T17:33:16.496Z,2.56
2019-02-04T17:35:45.929Z,2.36
2019-02-04T17:38:15.366Z,2.34
2019-02-04T17:40:44.806Z,2.41
2019-02-04T17:43:14.234Z,2.40
2019-02-04T17:45:43.675Z,2.43
2019-02-04T17:48:13.443Z,2.43
2019-02-04T17:50:42.885Z,2.36
2019-02-04T17:53:12.317Z,2.36
2019-02-04T17:55:41.754Z,2.43
2019-02-04T17:58:11.259Z,2.44
2019-02-04T18:00:42.340Z,2.42
2019-02-04T18:03:11.765Z,2.41
2019-02-04T18:05:41.201Z,2.41
2019-02-04T18:08:10.639Z,2.38
2019-02-04T18:10:40.074Z,2.35
2019-02-04T18:13:09.507Z,2.32
2019-02-04T18:15:38.949Z,2.16
2019-02-04T18:18:08.822Z,2.10
2019-02-04T18:20:38.267Z,2.00
2019-02-04T18:23:11.116Z,2.05
2019-02-04T18:25:39.239Z,2.00
2019-02-04T18:28:08.816Z,1.93
2019-02-04T18:30:38.920Z,1.93
2019-02-04T18:33:08.349Z,1.90
2019-02-04T18:35:38.138Z,1.97
2019-02-04T18:38:07.636Z,2.03
2019-02-04T18:40:37.076Z,2.05
2019-02-04T18:43:06.510Z,1.99
2019-02-04T18:45:38.420Z,2.02
2019-02-04T18:48:07.874Z,2.05
2019-02-04T18:50:37.600Z,2.03
2019-02-04T18:53:07.107Z,1.97
2019-02-04T18:55:38.781Z,1.90
2019-02-04T18:58:07.765Z,1.80
2019-02-04T19:00:37.985Z,1.73
2019-02-04T19:03:16.989Z,1.72
2019-02-04T19:05:39.624Z,1.64
2019-02-04T19:08:09.123Z,1.66
2019-02-04T19:10:38.563Z,1.66
2019-02-04T19:13:07.998Z,1.66
2019-02-04T19:15:41.494Z,1.67
2019-02-04T19:18:14.534Z,1.67
2019-02-04T19:20:43.976Z,1.56
2019-02-04T19:23:13.411Z,1.56
2019-02-04T19:25:42.843Z,1.59
2019-02-04T19:28:12.288Z,1.60
2019-02-04T19:30:46.762Z,1.55
2019-02-04T19:33:16.185Z,1.49
2019-02-04T19:35:45.620Z,1.54
2019-02-04T19:38:15.067Z,1.51
2019-02-04T19:40:44.492Z,1.33
2019-02-04T19:43:14.212Z,1.33
2019-02-04T19:45:43.651Z,1.28
2019-02-04T19:48:13.097Z,1.40
2019-02-04T19:50:42.529Z,1.36
2019-02-04T19:53:11.969Z,1.35
2019-02-04T19:55:41.403Z,1.33
2019-02-04T19:58:11.192Z,1.31
2019-02-04T20:00:40.745Z,1.31
2019-02-04T20:03:10.138Z,1.17
2019-02-04T20:05:39.572Z,1.16
2019-02-04T20:08:09.080Z,1.18
2019-02-04T20:10:38.514Z,1.14
2019-02-04T20:13:08.404Z,1.07
2019-02-04T20:15:39.471Z,1.04
2019-02-04T20:18:08.915Z,1.01
2019-02-04T20:20:38.349Z,0.99
2019-02-04T20:23:07.787Z,0.95
2019-02-04T20:25:39.436Z,0.97
2019-02-04T20:28:09.236Z,0.99
2019-02-04T20:30:46.161Z,0.98
2019-02-04T20:33:15.333Z,1.00
2019-02-04T20:35:44.760Z,0.99
2019-02-04T20:38:14.286Z,0.90
2019-02-04T20:40:44.102Z,0.90
2019-02-04T20:43:13.541Z,0.95
2019-02-04T20:45:42.977Z,0.92
2019-02-04T20:48:14.051Z,0.83
2019-02-04T20:50:47.808Z,0.88
2019-02-04T20:53:17.315Z,0.85
2019-02-04T20:55:46.749Z,0.72
2019-02-04T20:58:16.261Z,0.66
2019-02-04T21:00:45.768Z,0.61
2019-02-04T21:03:15.198Z,0.64
2019-02-04T21:05:44.627Z,0.70
2019-02-04T21:08:14.074Z,0.72
2019-02-04T21:10:43.511Z,0.62
2019-02-04T21:13:12.950Z,0.61
2019-02-04T21:15:42.388Z,0.53
2019-02-04T21:18:11.837Z,0.71
2019-02-04T21:20:41.265Z,0.84
2019-02-04T21:23:10.706Z,0.92
2019-02-04T21:25:40.137Z,0.86
2019-02-04T21:28:09.650Z,0.85
2019-02-04T21:30:41.396Z,0.77
2019-02-04T21:33:10.963Z,0.90
2019-02-04T21:35:40.341Z,1.00
2019-02-04T21:38:10.294Z,0.94
2019-02-04T21:40:39.806Z,0.94
2019-02-04T21:43:09.238Z,0.74
2019-02-04T21:45:39.456Z,0.69
2019-02-04T21:48:08.960Z,0.65
2019-02-04T21:50:38.414Z,0.65
2019-02-04T21:53:08.133Z,0.59
2019-02-04T21:55:37.573Z,0.66
2019-02-04T21:58:07.348Z,0.69
2019-02-04T22:00:39.476Z,0.61
2019-02-04T22:03:09.148Z,0.62
2019-02-04T22:05:38.595Z,0.63
2019-02-04T22:08:08.397Z,0.71
2019-02-04T22:10:37.813Z,0.59
2019-02-04T22:13:07.242Z,0.46
2019-02-04T22:15:37.164Z,0.57
2019-02-04T22:18:06.928Z,0.59
2019-02-04T22:20:36.756Z,0.55
2019-02-04T22:23:06.254Z,0.59
2019-02-04T22:25:35.691Z,0.50
2019-02-04T22:28:05.533Z,0.40
2019-02-04T22:30:34.970Z,0.39
2019-02-04T22:33:04.411Z,0.38
2019-02-04T22:35:33.845Z,0.34
2019-02-04T22:38:03.549Z,0.29
2019-02-04T22:40:32.994Z,0.42
2019-02-04T22:43:02.504Z,0.37
2019-02-04T22:45:31.949Z,0.41
2019-02-04T22:48:01.378Z,0.38
2019-02-04T22:50:31.967Z,0.43
2019-02-04T22:53:02.412Z,0.53
2019-02-04T22:55:32.788Z,0.57
2019-02-04T22:58:02.545Z,0.58
2019-02-04T23:00:51.027Z,0.46
2019-02-04T23:03:27.204Z,0.45
2019-02-04T23:05:56.721Z,0.46
2019-02-04T23:08:26.152Z,0.49
2019-02-04T23:10:55.614Z,0.43
2019-02-04T23:13:25.106Z,0.38
2019-02-04T23:15:54.829Z,0.44
2019-02-04T23:18:24.428Z,0.49
2019-02-04T23:20:53.874Z,0.32
2019-02-04T23:23:23.304Z,0.32
2019-02-04T23:25:52.744Z,0.37
2019-02-04T23:28:22.177Z,0.40
2019-02-04T23:30:51.618Z,0.45
2019-02-04T23:33:21.052Z,0.42
2019-02-04T23:35:50.497Z,0.59
2019-02-04T23:38:19.945Z,0.52
2019-02-04T23:40:49.373Z,0.56
2019-02-04T23:43:18.810Z,0.54
2019-02-04T23:45:48.255Z,0.47
2019-02-04T23:48:17.680Z,0.56
2019-02-04T23:50:47.125Z,0.50
2019-02-04T23:53:16.555Z,0.49
2019-02-04T23:55:54.439Z,0.49
2019-02-04T23:58:17.165Z,0.41
